Terminal Aerodrome Forecast
Issued by NWS Cleveland, OH

Home | Current Version | Previous Version | Graphics & Text | Print | Product List | Glossary On
Versions: 1 2 3 4 5 6 7 8 9 10 11 12 13 14 15 16 17 18
745
FTUS41 KCLE 201735
TAFCAK
TAF
KCAK 201735Z 2018/2118 20010KT P6SM OVC040
      TEMPO 2020/2022 BKN025
     FM202200 18008KT 5SM -SHRA OVC015
     FM210300 VRB03KT 4SM BR OVC006
     FM211400 34008KT P6SM OVC012=

USA.gov is the U.S. government's official web portal to all federal, state and local government web resources and services.